Etusivu
METAR-TAF:

METAR-TAF

Lentoasemat :

Vannes, Ranska

Leveyspiiri: 47-43-19N, Pituuspiiri: 2-43-41W, korkeus merenpinnasta: 130 m

Tämänhetkinen sää

Tämä raportti tehtiin 25 minuuttia sitten, kello 21.00 UTC
Tuuli 4 kn pohjoisesta/koillisesta
Lämpötila 5°C
Kosteus 100%
Ilmanpaine 1018 hPa
Näkyvyys 10 km tai enemmän
ei pilviä alle 1500 m:ssä eikä cumulonimbus-pilviä

METAR: LFRV 182100Z AUTO 03004KT CAVOK 05/05 Q1018

Aika: 22:25 (21:25 UTC)


TAF: puuttuu

Säähavainnot ja -ennusteet yli 4000 lentoasemalta (METAR- ja TAF-raportit).

Käytössä olevat sääasemat on merkitty karttaan keltaisilla ja punaisilla pisteillä.

Aseta hiiri pisteen päälle nähdäksesi sääaseman nimen.

Klikkaa sitten nähdäksesi säähavainnot ja -ennusteet.

Kartan vaihtaminen: klikkaa mustalla rastilla varustettuja vihreitä pisteitä, niin voit zoomata sisään; viivalla varustettua vihreää pistettä, niin voit zoomata ulos tai vihreitä nuolia, niin pääset viereisille kartoille.


METAR-TAF: